sensor_id;sensor_type;location;lat;lon;timestamp;pressure;altitude;pressure_sealevel;temperature;humidity
70343;BME280;57767;42.068;24.752;2022-10-22T00:00:11;99806.41;;;8.85;63.86
70343;BME280;57767;42.068;24.752;2022-10-22T00:01:14;99749.59;;;8.59;62.85
70343;BME280;57767;42.068;24.752;2022-10-22T00:02:16;99551.94;;;7.31;62.70
70343;BME280;57767;42.068;24.752;2022-10-22T00:03:20;99444.31;;;6.75;62.90
70343;BME280;57767;42.068;24.752;2022-10-22T00:04:22;99423.31;;;6.75;62.88
70343;BME280;57767;42.068;24.752;2022-10-22T00:05:24;99577.25;;;7.71;62.53
70343;BME280;57767;42.068;24.752;2022-10-22T00:06:26;99648.53;;;8.07;62.21
70343;BME280;57767;42.068;24.752;2022-10-22T00:07:28;99867.38;;;9.50;61.73
70343;BME280;57767;42.068;24.752;2022-10-22T00:08:31;99680.13;;;8.38;61.89
70343;BME280;57767;42.068;24.752;2022-10-22T00:09:33;99690.09;;;8.50;62.04
70343;BME280;57767;42.068;24.752;2022-10-22T00:10:36;99472.06;;;7.17;62.32
70343;BME280;57767;42.068;24.752;2022-10-22T00:11:39;99852.44;;;9.43;62.86
70343;BME280;57767;42.068;24.752;2022-10-22T00:12:41;99524.22;;;7.28;63.17
70343;BME280;57767;42.068;24.752;2022-10-22T00:13:44;99425.94;;;6.75;63.33
70343;BME280;57767;42.068;24.752;2022-10-22T00:14:51;99420.75;;;6.51;63.20
70343;BME280;57767;42.068;24.752;2022-10-22T00:15:53;99430.28;;;6.52;63.22
70343;BME280;57767;42.068;24.752;2022-10-22T00:16:55;99714.31;;;8.46;63.21
70343;BME280;57767;42.068;24.752;2022-10-22T00:17:57;99845.47;;;9.27;63.73
70343;BME280;57767;42.068;24.752;2022-10-22T00:18:59;99611.03;;;7.82;63.30
70343;BME280;57767;42.068;24.752;2022-10-22T00:20:01;99414.38;;;6.54;63.17
70343;BME280;57767;42.068;24.752;2022-10-22T00:21:04;99794.56;;;9.04;63.01
70343;BME280;57767;42.068;24.752;2022-10-22T00:22:07;99566.41;;;7.66;62.46
70343;BME280;57767;42.068;24.752;2022-10-22T00:23:10;99640.34;;;8.02;62.78
70343;BME280;57767;42.068;24.752;2022-10-22T00:24:12;99683.13;;;8.35;62.84
70343;BME280;57767;42.068;24.752;2022-10-22T00:25:15;99412.53;;;6.70;62.74
70343;BME280;57767;42.068;24.752;2022-10-22T00:26:17;99458.75;;;6.79;62.22
70343;BME280;57767;42.068;24.752;2022-10-22T00:27:19;99669.47;;;8.31;63.08
70343;BME280;57767;42.068;24.752;2022-10-22T00:28:22;99610.09;;;7.67;63.47
70343;BME280;57767;42.068;24.752;2022-10-22T00:29:24;99653.97;;;8.05;63.94
70343;BME280;57767;42.068;24.752;2022-10-22T00:30:26;99536.94;;;7.08;63.87
70343;BME280;57767;42.068;24.752;2022-10-22T00:31:28;99448.16;;;6.57;64.27
70343;BME280;57767;42.068;24.752;2022-10-22T00:32:30;99415.91;;;6.32;64.65
70343;BME280;57767;42.068;24.752;2022-10-22T00:33:32;99806.41;;;8.85;64.94
70343;BME280;57767;42.068;24.752;2022-10-22T00:34:34;99478.44;;;6.83;64.13
70343;BME280;57767;42.068;24.752;2022-10-22T00:35:36;99441.72;;;6.59;63.10
70343;BME280;57767;42.068;24.752;2022-10-22T00:36:42;99629.00;;;8.01;62.63
70343;BME280;57767;42.068;24.752;2022-10-22T00:37:44;99503.56;;;7.17;62.61
70343;BME280;57767;42.068;24.752;2022-10-22T00:38:46;99525.34;;;7.26;62.74
70343;BME280;57767;42.068;24.752;2022-10-22T00:39:48;99494.56;;;7.11;62.75
70343;BME280;57767;42.068;24.752;2022-10-22T00:40:50;99483.31;;;6.87;62.13
70343;BME280;57767;42.068;24.752;2022-10-22T00:41:53;99790.31;;;9.03;62.64
70343;BME280;57767;42.068;24.752;2022-10-22T00:42:56;99470.78;;;7.05;61.93
70343;BME280;57767;42.068;24.752;2022-10-22T00:44:00;99397.47;;;6.48;62.16
70343;BME280;57767;42.068;24.752;2022-10-22T00:46:10;99495.66;;;7.25;61.50
70343;BME280;57767;42.068;24.752;2022-10-22T00:47:13;99529.84;;;7.56;62.37
70343;BME280;57767;42.068;24.752;2022-10-22T00:48:30;99494.38;;;7.21;61.97
70343;BME280;57767;42.068;24.752;2022-10-22T00:49:34;99507.94;;;7.33;62.32
70343;BME280;57767;42.068;24.752;2022-10-22T00:50:40;99370.91;;;6.51;62.52
70343;BME280;57767;42.068;24.752;2022-10-22T00:51:43;99624.53;;;8.10;62.06
70343;BME280;57767;42.068;24.752;2022-10-22T00:52:46;99549.44;;;7.45;62.45
70343;BME280;57767;42.068;24.752;2022-10-22T00:53:50;99400.03;;;6.72;62.50
70343;BME280;57767;42.068;24.752;2022-10-22T00:54:54;99481.25;;;7.21;62.46
70343;BME280;57767;42.068;24.752;2022-10-22T00:55:56;99481.28;;;7.05;61.58
70343;BME280;57767;42.068;24.752;2022-10-22T00:56:58;99426.91;;;6.82;61.32
70343;BME280;57767;42.068;24.752;2022-10-22T00:58:01;99398.38;;;6.71;61.31
70343;BME280;57767;42.068;24.752;2022-10-22T00:59:03;99677.63;;;8.44;61.66
70343;BME280;57767;42.068;24.752;2022-10-22T01:00:05;99499.25;;;7.32;61.79
70343;BME280;57767;42.068;24.752;2022-10-22T01:01:13;99803.31;;;9.27;61.05
70343;BME280;57767;42.068;24.752;2022-10-22T01:02:17;99522.28;;;7.53;61.74
70343;BME280;57767;42.068;24.752;2022-10-22T01:03:19;99492.19;;;7.33;61.65
70343;BME280;57767;42.068;24.752;2022-10-22T01:04:21;99384.00;;;6.59;62.19
70343;BME280;57767;42.068;24.752;2022-10-22T01:05:28;99814.50;;;9.29;62.48
70343;BME280;57767;42.068;24.752;2022-10-22T01:06:32;99559.47;;;7.73;61.56
70343;BME280;57767;42.068;24.752;2022-10-22T01:07:44;99526.41;;;7.47;62.06
70343;BME280;57767;42.068;24.752;2022-10-22T01:09:12;99814.50;;;9.29;62.49
70343;BME280;57767;42.068;24.752;2022-10-22T01:14:16;99428.50;;;6.92;61.12
70343;BME280;57767;42.068;24.752;2022-10-22T01:16:39;99786.16;;;9.08;62.32
70343;BME280;57767;42.068;24.752;2022-10-22T01:20:52;99816.19;;;9.22;62.70
70343;BME280;57767;42.068;24.752;2022-10-22T01:22:14;99597.88;;;7.82;62.20
70343;BME280;57767;42.068;24.752;2022-10-22T01:30:06;99641.16;;;8.02;63.39
70343;BME280;57767;42.068;24.752;2022-10-22T01:31:10;99509.84;;;7.08;62.73
70343;BME280;57767;42.068;24.752;2022-10-22T01:32:17;99458.53;;;6.89;62.84
70343;BME280;57767;42.068;24.752;2022-10-22T01:33:23;99508.88;;;7.01;63.22
70343;BME280;57767;42.068;24.752;2022-10-22T01:34:28;99537.66;;;7.25;63.41
70343;BME280;57767;42.068;24.752;2022-10-22T01:35:36;99638.78;;;7.84;63.70
70343;BME280;57767;42.068;24.752;2022-10-22T01:36:39;99479.88;;;6.86;63.41
70343;BME280;57767;42.068;24.752;2022-10-22T01:37:52;99630.81;;;7.62;63.23
70343;BME280;57767;42.068;24.752;2022-10-22T01:38:55;99610.75;;;7.69;62.85
70343;BME280;57767;42.068;24.752;2022-10-22T01:39:59;99636.44;;;7.89;62.98
70343;BME280;57767;42.068;24.752;2022-10-22T01:41:02;99382.13;;;6.29;62.99
70343;BME280;57767;42.068;24.752;2022-10-22T01:42:04;99571.50;;;7.28;63.71
70343;BME280;57767;42.068;24.752;2022-10-22T01:43:08;99375.09;;;6.21;63.55
70343;BME280;57767;42.068;24.752;2022-10-22T01:44:33;99665.81;;;8.01;63.51
70343;BME280;57767;42.068;24.752;2022-10-22T01:45:50;99847.00;;;8.90;63.89
70343;BME280;57767;42.068;24.752;2022-10-22T01:54:02;99811.53;;;8.78;63.58
70343;BME280;57767;42.068;24.752;2022-10-22T01:55:21;99806.59;;;8.75;63.97
70343;BME280;57767;42.068;24.752;2022-10-22T01:57:50;99456.84;;;6.49;63.59
70343;BME280;57767;42.068;24.752;2022-10-22T01:59:08;99767.41;;;8.49;63.79
70343;BME280;57767;42.068;24.752;2022-10-22T02:00:16;99357.75;;;5.96;63.32
70343;BME280;57767;42.068;24.752;2022-10-22T02:02:46;99618.09;;;7.42;62.89
70343;BME280;57767;42.068;24.752;2022-10-22T02:04:10;99804.94;;;8.74;63.51
70343;BME280;57767;42.068;24.752;2022-10-22T02:05:31;99747.25;;;8.25;63.77
70343;BME280;57767;42.068;24.752;2022-10-22T02:06:38;99781.38;;;8.58;63.75
70343;BME280;57767;42.068;24.752;2022-10-22T02:07:50;99607.38;;;7.52;63.97
70343;BME280;57767;42.068;24.752;2022-10-22T02:08:53;99341.22;;;5.79;64.22
70343;BME280;57767;42.068;24.752;2022-10-22T02:09:57;99350.88;;;5.87;63.87
70343;BME280;57767;42.068;24.752;2022-10-22T02:11:00;99396.75;;;6.15;63.28
70343;BME280;57767;42.068;24.752;2022-10-22T02:12:04;99394.59;;;6.10;63.41
70343;BME280;57767;42.068;24.752;2022-10-22T02:13:09;99602.31;;;7.42;63.23
70343;BME280;57767;42.068;24.752;2022-10-22T02:14:15;99452.28;;;6.43;63.40
70343;BME280;57767;42.068;24.752;2022-10-22T02:15:20;99509.44;;;6.72;63.97
70343;BME280;57767;42.068;24.752;2022-10-22T02:16:40;99798.63;;;8.60;63.50
70343;BME280;57767;42.068;24.752;2022-10-22T02:17:44;99476.66;;;6.60;63.29
70343;BME280;57767;42.068;24.752;2022-10-22T02:18:49;99551.06;;;6.91;63.30
70343;BME280;57767;42.068;24.752;2022-10-22T02:20:05;99671.34;;;7.75;63.58
70343;BME280;57767;42.068;24.752;2022-10-22T02:21:09;99497.34;;;6.55;63.53
70343;BME280;57767;42.068;24.752;2022-10-22T02:22:11;99596.63;;;7.14;63.52
70343;BME280;57767;42.068;24.752;2022-10-22T02:23:13;99645.66;;;7.46;63.71
70343;BME280;57767;42.068;24.752;2022-10-22T02:24:16;99493.06;;;6.54;64.24
70343;BME280;57767;42.068;24.752;2022-10-22T02:25:21;99788.94;;;8.53;64.12
70343;BME280;57767;42.068;24.752;2022-10-22T02:26:31;99500.41;;;6.74;63.95
70343;BME280;57767;42.068;24.752;2022-10-22T02:27:45;99349.25;;;5.78;63.65
70343;BME280;57767;42.068;24.752;2022-10-22T02:30:04;99791.25;;;8.56;64.99
70343;BME280;57767;42.068;24.752;2022-10-22T02:31:13;99534.16;;;6.94;65.08
70343;BME280;57767;42.068;24.752;2022-10-22T02:32:19;99790.59;;;8.54;64.91
70343;BME280;57767;42.068;24.752;2022-10-22T02:33:35;99372.03;;;5.93;65.01
70343;BME280;57767;42.068;24.752;2022-10-22T02:34:39;99467.00;;;6.36;65.00
70343;BME280;57767;42.068;24.752;2022-10-22T02:35:43;99586.97;;;7.07;65.34
70343;BME280;57767;42.068;24.752;2022-10-22T02:36:47;99650.88;;;7.54;65.41
70343;BME280;57767;42.068;24.752;2022-10-22T02:37:52;99427.38;;;6.15;65.80
70343;BME280;57767;42.068;24.752;2022-10-22T02:38:56;99488.00;;;6.36;65.67
70343;BME280;57767;42.068;24.752;2022-10-22T02:39:59;99343.38;;;5.67;65.66
70343;BME280;57767;42.068;24.752;2022-10-22T02:41:01;99768.94;;;8.27;65.71
70343;BME280;57767;42.068;24.752;2022-10-22T02:42:03;99629.63;;;7.17;65.32
70343;BME280;57767;42.068;24.752;2022-10-22T02:43:06;99597.78;;;7.20;65.30
70343;BME280;57767;42.068;24.752;2022-10-22T02:44:09;99354.16;;;5.72;65.08
70343;BME280;57767;42.068;24.752;2022-10-22T02:45:11;99330.41;;;5.33;64.76
70343;BME280;57767;42.068;24.752;2022-10-22T02:46:13;99456.53;;;6.28;65.43
70343;BME280;57767;42.068;24.752;2022-10-22T02:47:15;99363.50;;;5.75;64.69
70343;BME280;57767;42.068;24.752;2022-10-22T02:48:17;99655.31;;;7.54;64.45
70343;BME280;57767;42.068;24.752;2022-10-22T02:49:24;99528.81;;;6.63;64.59
70343;BME280;57767;42.068;24.752;2022-10-22T02:50:26;99453.59;;;6.31;64.81
70343;BME280;57767;42.068;24.752;2022-10-22T02:51:29;99716.81;;;7.92;65.16
70343;BME280;57767;42.068;24.752;2022-10-22T02:52:31;99672.91;;;7.53;65.25
70343;BME280;57767;42.068;24.752;2022-10-22T02:53:33;99598.47;;;7.06;65.31
70343;BME280;57767;42.068;24.752;2022-10-22T02:54:35;99435.41;;;6.13;65.19
70343;BME280;57767;42.068;24.752;2022-10-22T02:55:37;99448.34;;;6.31;65.06
70343;BME280;57767;42.068;24.752;2022-10-22T02:56:39;99771.13;;;8.32;64.96
70343;BME280;57767;42.068;24.752;2022-10-22T02:57:40;99534.53;;;6.74;65.21
70343;BME280;57767;42.068;24.752;2022-10-22T02:58:43;99820.03;;;8.57;65.61
70343;BME280;57767;42.068;24.752;2022-10-22T02:59:45;99353.69;;;5.69;65.18
70343;BME280;57767;42.068;24.752;2022-10-22T03:00:47;99688.78;;;7.68;65.08
70343;BME280;57767;42.068;24.752;2022-10-22T03:01:50;99583.66;;;7.21;65.38
70343;BME280;57767;42.068;24.752;2022-10-22T03:02:52;99384.81;;;6.04;65.55
70343;BME280;57767;42.068;24.752;2022-10-22T03:03:54;99537.66;;;6.78;65.20
70343;BME280;57767;42.068;24.752;2022-10-22T03:04:57;99516.97;;;6.83;65.85
70343;BME280;57767;42.068;24.752;2022-10-22T03:05:59;99803.53;;;8.63;65.67
70343;BME280;57767;42.068;24.752;2022-10-22T03:07:01;99405.94;;;6.19;65.68
70343;BME280;57767;42.068;24.752;2022-10-22T03:08:03;99399.38;;;6.15;65.43
70343;BME280;57767;42.068;24.752;2022-10-22T03:09:05;99443.09;;;6.39;65.51
70343;BME280;57767;42.068;24.752;2022-10-22T03:10:08;99507.81;;;6.63;65.78
70343;BME280;57767;42.068;24.752;2022-10-22T03:11:10;99540.41;;;6.84;66.15
70343;BME280;57767;42.068;24.752;2022-10-22T03:12:12;99420.34;;;6.07;65.55
70343;BME280;57767;42.068;24.752;2022-10-22T03:13:14;99507.16;;;6.61;65.73
70343;BME280;57767;42.068;24.752;2022-10-22T03:14:16;99630.88;;;7.37;65.70
70343;BME280;57767;42.068;24.752;2022-10-22T03:15:17;99427.84;;;6.26;65.04
70343;BME280;57767;42.068;24.752;2022-10-22T03:16:20;99634.31;;;7.54;64.96
70343;BME280;57767;42.068;24.752;2022-10-22T03:17:22;99776.66;;;8.37;64.29
70343;BME280;57767;42.068;24.752;2022-10-22T03:18:24;99644.66;;;7.47;64.57
70343;BME280;57767;42.068;24.752;2022-10-22T03:19:26;99662.06;;;7.57;64.74
70343;BME280;57767;42.068;24.752;2022-10-22T03:20:28;99521.06;;;6.77;64.21
70343;BME280;57767;42.068;24.752;2022-10-22T03:21:37;99802.88;;;8.61;64.33
70343;BME280;57767;42.068;24.752;2022-10-22T03:22:41;99507.31;;;6.59;64.10
70343;BME280;57767;42.068;24.752;2022-10-22T03:23:44;99431.97;;;6.29;64.16
70343;BME280;57767;42.068;24.752;2022-10-22T03:24:48;99315.34;;;5.60;64.28
70343;BME280;57767;42.068;24.752;2022-10-22T03:25:51;99374.31;;;5.96;63.94
70343;BME280;57767;42.068;24.752;2022-10-22T03:26:53;99536.97;;;6.92;64.13
70343;BME280;57767;42.068;24.752;2022-10-22T03:27:57;99372.66;;;5.87;64.34
70343;BME280;57767;42.068;24.752;2022-10-22T03:29:01;99518.16;;;6.64;64.76
70343;BME280;57767;42.068;24.752;2022-10-22T03:30:04;99572.53;;;7.03;64.72
70343;BME280;57767;42.068;24.752;2022-10-22T03:31:06;99625.47;;;7.47;64.57
70343;BME280;57767;42.068;24.752;2022-10-22T03:32:08;99362.53;;;5.68;63.88
70343;BME280;57767;42.068;24.752;2022-10-22T03:33:10;99482.88;;;6.67;63.68
70343;BME280;57767;42.068;24.752;2022-10-22T03:34:12;99404.28;;;6.02;64.10
70343;BME280;57767;42.068;24.752;2022-10-22T03:35:14;99523.00;;;6.92;64.60
70343;BME280;57767;42.068;24.752;2022-10-22T03:36:16;99466.69;;;6.55;64.73
70343;BME280;57767;42.068;24.752;2022-10-22T03:37:18;99483.88;;;6.50;64.43
70343;BME280;57767;42.068;24.752;2022-10-22T03:38:21;99653.19;;;7.58;64.30
70343;BME280;57767;42.068;24.752;2022-10-22T03:39:22;99442.44;;;6.37;63.85
70343;BME280;57767;42.068;24.752;2022-10-22T03:40:25;99623.94;;;7.52;63.94
70343;BME280;57767;42.068;24.752;2022-10-22T03:41:27;99507.66;;;6.64;63.83
70343;BME280;57767;42.068;24.752;2022-10-22T03:42:29;99777.66;;;8.44;64.23
70343;BME280;57767;42.068;24.752;2022-10-22T03:43:33;99395.94;;;5.98;64.56
70343;BME280;57767;42.068;24.752;2022-10-22T03:44:37;99487.66;;;6.47;65.18
70343;BME280;57767;42.068;24.752;2022-10-22T03:45:40;99632.22;;;7.33;64.82
70343;BME280;57767;42.068;24.752;2022-10-22T03:46:42;99811.69;;;8.46;64.58
70343;BME280;57767;42.068;24.752;2022-10-22T03:47:44;99400.19;;;5.99;64.30
70343;BME280;57767;42.068;24.752;2022-10-22T03:48:46;99604.50;;;7.31;63.89
70343;BME280;57767;42.068;24.752;2022-10-22T03:49:49;99481.94;;;6.43;64.24
70343;BME280;57767;42.068;24.752;2022-10-22T03:50:51;99458.00;;;6.38;64.66
70343;BME280;57767;42.068;24.752;2022-10-22T03:51:53;99508.13;;;6.68;64.43
70343;BME280;57767;42.068;24.752;2022-10-22T03:52:55;99399.22;;;6.00;64.88
70343;BME280;57767;42.068;24.752;2022-10-22T03:53:58;99450.66;;;6.09;64.64
70343;BME280;57767;42.068;24.752;2022-10-22T03:55:00;99378.22;;;5.84;64.49
70343;BME280;57767;42.068;24.752;2022-10-22T03:56:07;99629.28;;;7.28;64.51
70343;BME280;57767;42.068;24.752;2022-10-22T03:57:10;99537.97;;;6.75;64.50
70343;BME280;57767;42.068;24.752;2022-10-22T03:58:12;99365.78;;;5.70;63.65
70343;BME280;57767;42.068;24.752;2022-10-22T03:59:14;99660.59;;;7.38;64.89
70343;BME280;57767;42.068;24.752;2022-10-22T04:00:16;99515.53;;;6.40;64.78
70343;BME280;57767;42.068;24.752;2022-10-22T04:01:18;99754.56;;;7.99;64.82
70343;BME280;57767;42.068;24.752;2022-10-22T04:02:20;99612.56;;;6.97;65.56
70343;BME280;57767;42.068;24.752;2022-10-22T04:03:22;99482.75;;;5.95;65.92
70343;BME280;57767;42.068;24.752;2022-10-22T04:04:26;99330.41;;;5.25;65.57
70343;BME280;57767;42.068;24.752;2022-10-22T04:05:28;99548.66;;;6.57;64.33
70343;BME280;57767;42.068;24.752;2022-10-22T04:06:30;99582.75;;;6.81;64.79
70343;BME280;57767;42.068;24.752;2022-10-22T04:07:32;99694.25;;;7.50;65.13
70343;BME280;57767;42.068;24.752;2022-10-22T04:08:34;99587.03;;;6.66;64.71
70343;BME280;57767;42.068;24.752;2022-10-22T04:09:37;99519.47;;;6.36;64.96
70343;BME280;57767;42.068;24.752;2022-10-22T04:10:39;99451.97;;;5.97;65.09
70343;BME280;57767;42.068;24.752;2022-10-22T04:11:40;99708.06;;;7.36;65.21
70343;BME280;57767;42.068;24.752;2022-10-22T04:12:46;99629.81;;;7.07;65.22
70343;BME280;57767;42.068;24.752;2022-10-22T04:13:48;99431.63;;;5.75;64.40
70343;BME280;57767;42.068;24.752;2022-10-22T04:14:50;99837.72;;;8.16;64.56
70343;BME280;57767;42.068;24.752;2022-10-22T04:15:52;99486.88;;;6.14;64.42
70343;BME280;57767;42.068;24.752;2022-10-22T04:16:54;99795.16;;;8.13;64.98
70343;BME280;57767;42.068;24.752;2022-10-22T04:17:59;99422.47;;;5.79;64.41
70343;BME280;57767;42.068;24.752;2022-10-22T04:19:01;99575.88;;;6.64;64.89
70343;BME280;57767;42.068;24.752;2022-10-22T04:20:03;99512.25;;;6.22;65.33
70343;BME280;57767;42.068;24.752;2022-10-22T04:21:07;99503.09;;;6.26;65.60
70343;BME280;57767;42.068;24.752;2022-10-22T04:22:09;99537.84;;;6.44;65.58
70343;BME280;57767;42.068;24.752;2022-10-22T04:23:14;99487.69;;;6.06;65.73
70343;BME280;57767;42.068;24.752;2022-10-22T04:24:15;99565.88;;;6.52;66.14
70343;BME280;57767;42.068;24.752;2022-10-22T04:25:18;99399.03;;;5.61;66.05
70343;BME280;57767;42.068;24.752;2022-10-22T04:26:20;99838.75;;;8.07;65.44
70343;BME280;57767;42.068;24.752;2022-10-22T04:27:22;99457.66;;;5.85;65.50
70343;BME280;57767;42.068;24.752;2022-10-22T04:28:24;99523.41;;;6.24;65.23
70343;BME280;57767;42.068;24.752;2022-10-22T04:29:26;99568.66;;;6.26;65.33
70343;BME280;57767;42.068;24.752;2022-10-22T04:30:28;99639.16;;;7.02;65.74
70343;BME280;57767;42.068;24.752;2022-10-22T04:31:30;99567.19;;;6.56;65.59
70343;BME280;57767;42.068;24.752;2022-10-22T04:32:32;99548.34;;;6.28;65.51
70343;BME280;57767;42.068;24.752;2022-10-22T04:33:34;99408.84;;;5.51;65.45
70343;BME280;57767;42.068;24.752;2022-10-22T04:34:36;99636.41;;;6.95;65.50
70343;BME280;57767;42.068;24.752;2022-10-22T04:35:38;99479.16;;;5.88;65.27
70343;BME280;57767;42.068;24.752;2022-10-22T04:36:40;99627.38;;;6.90;65.99
70343;BME280;57767;42.068;24.752;2022-10-22T04:37:42;99405.06;;;5.37;65.56
70343;BME280;57767;42.068;24.752;2022-10-22T04:38:45;99799.16;;;7.93;65.43
70343;BME280;57767;42.068;24.752;2022-10-22T04:39:49;99589.00;;;6.56;65.83
70343;BME280;57767;42.068;24.752;2022-10-22T04:40:51;99454.69;;;5.71;65.63
70343;BME280;57767;42.068;24.752;2022-10-22T04:41:53;99715.31;;;7.34;65.53
70343;BME280;57767;42.068;24.752;2022-10-22T04:42:55;99613.75;;;6.78;65.50
70343;BME280;57767;42.068;24.752;2022-10-22T04:43:58;99659.69;;;7.06;65.30
70343;BME280;57767;42.068;24.752;2022-10-22T04:45:01;99569.47;;;6.51;65.60
70343;BME280;57767;42.068;24.752;2022-10-22T04:46:03;99564.06;;;6.28;65.37
70343;BME280;57767;42.068;24.752;2022-10-22T04:47:05;99373.28;;;5.32;65.46
70343;BME280;57767;42.068;24.752;2022-10-22T04:48:07;99599.50;;;6.56;65.01
70343;BME280;57767;42.068;24.752;2022-10-22T04:49:10;99839.72;;;8.06;65.36
70343;BME280;57767;42.068;24.752;2022-10-22T04:50:12;99681.16;;;7.10;65.61
70343;BME280;57767;42.068;24.752;2022-10-22T04:51:16;99808.16;;;7.98;65.66
70343;BME280;57767;42.068;24.752;2022-10-22T04:52:19;99580.78;;;6.59;65.16
70343;BME280;57767;42.068;24.752;2022-10-22T04:53:21;99360.84;;;5.26;65.47
70343;BME280;57767;42.068;24.752;2022-10-22T04:54:22;99468.66;;;5.88;65.61
70343;BME280;57767;42.068;24.752;2022-10-22T04:55:30;99477.03;;;5.92;65.59
70343;BME280;57767;42.068;24.752;2022-10-22T04:56:33;99409.50;;;5.61;66.29
70343;BME280;57767;42.068;24.752;2022-10-22T04:57:35;99496.53;;;6.22;65.87
70343;BME280;57767;42.068;24.752;2022-10-22T04:58:38;99632.94;;;7.03;65.57
70343;BME280;57767;42.068;24.752;2022-10-22T04:59:42;99354.63;;;5.35;64.84
70343;BME280;57767;42.068;24.752;2022-10-22T05:00:44;99431.94;;;5.72;65.07
70343;BME280;57767;42.068;24.752;2022-10-22T05:01:46;99382.47;;;5.36;65.53
70343;BME280;57767;42.068;24.752;2022-10-22T05:02:50;99396.25;;;5.63;64.97
70343;BME280;57767;42.068;24.752;2022-10-22T05:03:54;99606.34;;;6.98;64.76
70343;BME280;57767;42.068;24.752;2022-10-22T05:04:57;99522.09;;;6.36;64.44
70343;BME280;57767;42.068;24.752;2022-10-22T05:06:02;99565.69;;;6.61;64.06
70343;BME280;57767;42.068;24.752;2022-10-22T05:07:04;99330.56;;;5.32;64.37
70343;BME280;57767;42.068;24.752;2022-10-22T05:08:06;99485.56;;;6.26;64.07
70343;BME280;57767;42.068;24.752;2022-10-22T05:09:13;99393.31;;;5.82;64.18
70343;BME280;57767;42.068;24.752;2022-10-22T05:10:15;99603.19;;;7.10;64.70
70343;BME280;57767;42.068;24.752;2022-10-22T05:11:20;99418.03;;;5.96;64.58
70343;BME280;57767;42.068;24.752;2022-10-22T05:12:22;99359.22;;;5.58;64.74
70343;BME280;57767;42.068;24.752;2022-10-22T05:13:24;99388.56;;;5.78;64.76
70343;BME280;57767;42.068;24.752;2022-10-22T05:14:26;99615.19;;;7.21;64.08
70343;BME280;57767;42.068;24.752;2022-10-22T05:15:28;99486.22;;;6.44;64.34
70343;BME280;57767;42.068;24.752;2022-10-22T05:16:31;99381.66;;;5.76;64.23
70343;BME280;57767;42.068;24.752;2022-10-22T05:17:36;99362.66;;;5.58;64.40
70343;BME280;57767;42.068;24.752;2022-10-22T05:18:40;99316.69;;;5.39;64.10
70343;BME280;57767;42.068;24.752;2022-10-22T05:19:43;99472.28;;;6.20;64.21
70343;BME280;57767;42.068;24.752;2022-10-22T05:20:46;99418.50;;;5.83;64.57
70343;BME280;57767;42.068;24.752;2022-10-22T05:21:47;99580.94;;;6.90;64.26
70343;BME280;57767;42.068;24.752;2022-10-22T05:22:51;99375.94;;;5.57;64.63
70343;BME280;57767;42.068;24.752;2022-10-22T05:23:53;99593.91;;;6.92;65.14
70343;BME280;57767;42.068;24.752;2022-10-22T05:24:55;99432.63;;;5.82;64.92
70343;BME280;57767;42.068;24.752;2022-10-22T05:26:01;99739.19;;;7.80;65.12
70343;BME280;57767;42.068;24.752;2022-10-22T05:27:04;99421.75;;;5.45;65.72
70343;BME280;57767;42.068;24.752;2022-10-22T05:28:06;99510.31;;;6.16;65.72
70343;BME280;57767;42.068;24.752;2022-10-22T05:29:08;99760.91;;;7.66;66.84
70343;BME280;57767;42.068;24.752;2022-10-22T05:30:10;99378.50;;;5.32;67.28
70343;BME280;57767;42.068;24.752;2022-10-22T05:31:13;99489.97;;;6.01;67.22
70343;BME280;57767;42.068;24.752;2022-10-22T05:32:15;99747.31;;;7.54;67.14
70343;BME280;57767;42.068;24.752;2022-10-22T05:33:17;99762.06;;;7.63;66.97
70343;BME280;57767;42.068;24.752;2022-10-22T05:34:24;99392.97;;;5.53;67.23
70343;BME280;57767;42.068;24.752;2022-10-22T05:35:26;99386.75;;;5.54;67.70
70343;BME280;57767;42.068;24.752;2022-10-22T05:36:28;99633.91;;;7.10;66.74
70343;BME280;57767;42.068;24.752;2022-10-22T05:37:30;99672.97;;;7.21;67.03
70343;BME280;57767;42.068;24.752;2022-10-22T05:38:34;99596.88;;;6.80;66.22
70343;BME280;57767;42.068;24.752;2022-10-22T05:39:36;99305.84;;;4.94;65.12
70343;BME280;57767;42.068;24.752;2022-10-22T05:40:40;99794.47;;;8.19;65.69
70343;BME280;57767;42.068;24.752;2022-10-22T05:41:42;99781.97;;;8.21;65.76
70343;BME280;57767;42.068;24.752;2022-10-22T05:42:44;99442.28;;;6.14;65.77
70343;BME280;57767;42.068;24.752;2022-10-22T05:43:47;99771.09;;;8.24;66.04
70343;BME280;57767;42.068;24.752;2022-10-22T05:44:49;99809.19;;;8.52;65.93
70343;BME280;57767;42.068;24.752;2022-10-22T05:45:51;99476.69;;;6.43;65.25
70343;BME280;57767;42.068;24.752;2022-10-22T05:46:53;99693.47;;;7.89;65.10
70343;BME280;57767;42.068;24.752;2022-10-22T05:47:55;99804.50;;;8.71;65.52
70343;BME280;57767;42.068;24.752;2022-10-22T05:49:00;99580.81;;;7.39;64.99
70343;BME280;57767;42.068;24.752;2022-10-22T05:50:02;99789.53;;;8.71;65.26
70343;BME280;57767;42.068;24.752;2022-10-22T05:51:07;99681.69;;;8.16;65.25
70343;BME280;57767;42.068;24.752;2022-10-22T05:52:09;99545.00;;;7.38;64.51
70343;BME280;57767;42.068;24.752;2022-10-22T05:53:12;99490.81;;;7.06;64.92
70343;BME280;57767;42.068;24.752;2022-10-22T05:54:17;99621.50;;;7.90;65.09
70343;BME280;57767;42.068;24.752;2022-10-22T05:55:19;99787.72;;;8.94;64.79
70343;BME280;57767;42.068;24.752;2022-10-22T05:56:21;99761.47;;;8.86;64.51
70343;BME280;57767;42.068;24.752;2022-10-22T05:57:24;99780.41;;;9.05;64.58
70343;BME280;57767;42.068;24.752;2022-10-22T05:58:26;99499.75;;;7.28;64.32
70343;BME280;57767;42.068;24.752;2022-10-22T05:59:27;99407.88;;;6.80;63.87
70343;BME280;57767;42.068;24.752;2022-10-22T06:00:29;99463.53;;;7.15;64.72
70343;BME280;57767;42.068;24.752;2022-10-22T06:01:32;99650.00;;;8.40;64.08
70343;BME280;57767;42.068;24.752;2022-10-22T06:02:36;99440.94;;;7.06;65.05
70343;BME280;57767;42.068;24.752;2022-10-22T06:03:38;99662.31;;;8.48;64.88
70343;BME280;57767;42.068;24.752;2022-10-22T06:04:40;99487.91;;;7.63;64.68